Time;durP1;ratioP1;P1;durP2;ratioP2;P2;SDS_P1;SDS_P2;PMS_P1;PMS_P2;Temp;Humidity;BMP_temperature;BMP_pressure;BME280_temperature;BME280_humidity;BME280_pressure;Samples;Min_cycle;Max_cycle;Signal;HPM_P1;HPM_P2
2022/10/17 00:00:50;;;;;;;0.97;0.97;;;;;;;14.89;91.97;96057.66;4290801;33;20217;-63
2022/10/17 00:03:17;;;;;;;0.60;0.60;;;;;;;14.78;92.38;96054.41;4291652;33;20194;-63
2022/10/17 00:05:45;;;;;;;0.77;0.50;;;;;;;14.83;92.10;96048.19;4309942;33;20194;-63
2022/10/17 00:08:14;;;;;;;0.93;0.93;;;;;;;14.74;92.28;96050.78;4285805;33;20194;-63
2022/10/17 00:10:40;;;;;;;0.70;0.70;;;;;;;14.69;92.47;96055.44;4301158;33;20207;-63
2022/10/17 00:13:09;;;;;;;1.13;1.13;;;;;;;14.76;91.95;96053.13;4292415;33;23073;-63
2022/10/17 00:15:35;;;;;;;0.77;0.77;;;;;;;14.71;91.98;96055.94;4312710;33;20190;-63
2022/10/17 00:18:02;;;;;;;0.67;0.67;;;;;;;14.70;92.39;96057.03;4300892;33;20308;-66
2022/10/17 00:20:29;;;;;;;0.50;0.50;;;;;;;14.68;92.39;96061.88;4313977;33;20245;-66
2022/10/17 00:22:56;;;;;;;1.43;1.37;;;;;;;14.69;92.24;96058.91;4300785;33;20228;-65
2022/10/17 00:25:23;;;;;;;1.90;0.67;;;;;;;14.70;92.02;96055.16;4272903;33;20209;-65
2022/10/17 00:27:50;;;;;;;1.27;1.10;;;;;;;14.56;92.67;96059.72;4286697;33;20278;-65
2022/10/17 00:30:17;;;;;;;0.63;0.63;;;;;;;14.54;92.71;96061.91;4303369;33;20190;-65
2022/10/17 00:32:44;;;;;;;5.70;0.73;;;;;;;14.57;92.41;96055.94;4308208;33;20193;-65
2022/10/17 00:35:10;;;;;;;1.07;1.07;;;;;;;14.52;92.63;96056.09;4305408;33;20241;-65
2022/10/17 00:37:37;;;;;;;0.70;0.70;;;;;;;14.43;92.80;96063.22;4314168;32;20287;-65
2022/10/17 00:40:07;;;;;;;0.40;0.40;;;;;;;14.47;92.91;96055.41;4314498;33;20182;-65
2022/10/17 00:42:35;;;;;;;0.50;0.50;;;;;;;14.46;92.90;96064.50;4293598;32;20260;-65
2022/10/17 00:45:28;;;;;;;6.03;1.13;;;;;;;14.49;92.95;96066.56;4301535;32;20237;-65
2022/10/17 00:48:08;;;;;;;0.80;0.80;;;;;;;14.43;93.00;96065.88;4281600;33;20174;-65
2022/10/17 00:50:35;;;;;;;1.00;0.93;;;;;;;14.38;92.86;96061.41;4273968;33;20297;-65
2022/10/17 00:53:05;;;;;;;0.67;0.67;;;;;;;14.27;93.57;96067.25;4302408;32;20241;-63
2022/10/17 00:55:38;;;;;;;2.83;1.33;;;;;;;14.30;92.94;96072.78;4288439;32;20205;-63
2022/10/17 00:58:09;;;;;;;0.87;0.87;;;;;;;14.20;93.34;96070.31;4296721;33;20245;-63
2022/10/17 01:00:36;;;;;;;0.70;0.70;;;;;;;14.29;93.41;96079.22;4293221;33;20237;-63
2022/10/17 01:03:03;;;;;;;2.27;0.93;;;;;;;14.25;93.12;96075.56;4312330;32;20210;-63
2022/10/17 01:05:29;;;;;;;0.63;0.63;;;;;;;14.20;93.12;96080.19;4296020;33;20253;-62
2022/10/17 01:07:55;;;;;;;0.73;0.73;;;;;;;14.21;93.25;96071.91;4313466;33;20182;-63
2022/10/17 01:10:22;;;;;;;1.30;0.50;;;;;;;14.21;92.89;96077.22;4313466;33;20202;-63
2022/10/17 01:13:06;;;;;;;2.33;0.60;;;;;;;14.15;93.29;96081.06;4313917;32;20190;-63
2022/10/17 01:16:05;;;;;;;0.30;0.30;;;;;;;14.07;93.92;96079.12;4294238;32;20193;-63
2022/10/17 01:19:09;;;;;;;0.40;0.40;;;;;;;13.92;94.22;96079.41;4280496;33;20185;-63
2022/10/17 01:22:07;;;;;;;0.50;0.50;;;;;;;14.00;93.83;96078.72;4310252;33;20195;-63
2022/10/17 01:24:48;;;;;;;0.33;0.33;;;;;;;14.16;92.98;96088.00;4298805;33;20381;-62
2022/10/17 01:27:53;;;;;;;0.60;0.60;;;;;;;14.14;93.02;96073.38;4274100;33;20194;-63
2022/10/17 01:30:56;;;;;;;0.60;0.60;;;;;;;14.01;92.84;96077.63;4319525;32;20184;-63
2022/10/17 01:33:40;;;;;;;1.63;1.13;;;;;;;13.87;93.46;96079.50;4302066;33;20235;-63
2022/10/17 01:36:39;;;;;;;7.87;1.23;;;;;;;13.55;94.23;96067.00;4315668;33;20205;-63
2022/10/17 01:39:16;;;;;;;3.03;1.23;;;;;;;13.54;94.25;96063.53;4310571;32;20256;-63
2022/10/17 01:42:05;;;;;;;0.60;0.60;;;;;;;13.57;94.47;96067.50;4319263;32;20176;-63
2022/10/17 01:44:54;;;;;;;0.47;0.47;;;;;;;13.67;93.81;96062.00;4325797;32;20208;-63
2022/10/17 01:47:24;;;;;;;0.30;0.30;;;;;;;13.51;93.54;96060.69;4288743;33;20272;-65
2022/10/17 01:49:53;;;;;;;0.63;0.63;;;;;;;13.54;93.65;96065.41;4289548;33;20182;-65
2022/10/17 01:52:43;;;;;;;1.70;0.97;;;;;;;13.34;94.06;96066.56;4309741;33;20220;-66
2022/10/17 01:55:24;;;;;;;0.27;0.27;;;;;;;13.43;94.40;96064.81;4304916;33;20182;-65
2022/10/17 01:57:54;;;;;;;1.23;1.13;;;;;;;13.60;93.62;96070.38;4312191;32;20238;-65
2022/10/17 02:00:26;;;;;;;1.60;0.93;;;;;;;13.57;93.43;96068.28;4296590;33;20182;-65
2022/10/17 02:03:03;;;;;;;0.70;0.70;;;;;;;13.59;92.83;96068.78;4321094;32;20200;-65
2022/10/17 02:05:37;;;;;;;0.57;0.57;;;;;;;13.63;92.71;96059.13;4323831;33;20189;-65
2022/10/17 02:08:06;;;;;;;0.70;0.70;;;;;;;13.60;92.36;96064.25;4330677;32;20212;-65
2022/10/17 02:11:15;;;;;;;0.77;0.77;;;;;;;13.51;92.81;96064.12;4332514;32;20178;-65
2022/10/17 02:14:00;;;;;;;0.50;0.50;;;;;;;13.50;92.91;96070.56;4319043;32;20177;-65
2022/10/17 02:16:53;;;;;;;0.60;0.60;;;;;;;13.53;92.67;96074.50;4313955;33;20259;-65
2022/10/17 02:19:37;;;;;;;0.47;0.47;;;;;;;13.68;91.67;96059.03;4311921;32;20232;-65
2022/10/17 02:22:18;;;;;;;0.50;0.50;;;;;;;13.61;91.98;96069.28;4325172;32;20276;-65
2022/10/17 02:25:03;;;;;;;0.60;0.60;;;;;;;13.42;92.47;96057.91;4334880;32;20200;-65
2022/10/17 02:27:42;;;;;;;0.37;0.37;;;;;;;13.41;93.00;96061.66;4298021;33;20182;-65
2022/10/17 02:30:45;;;;;;;0.43;0.43;;;;;;;13.46;92.70;96060.78;4305798;33;20217;-65
2022/10/17 02:33:19;;;;;;;0.27;0.27;;;;;;;13.53;92.80;96055.84;4321861;32;20203;-65
2022/10/17 02:35:52;;;;;;;2.40;0.67;;;;;;;13.23;93.34;96062.47;4319909;33;20185;-65
2022/10/17 02:38:24;;;;;;;0.73;0.73;;;;;;;13.23;93.80;96065.16;4284136;33;20187;-65
2022/10/17 02:40:52;;;;;;;0.70;0.70;;;;;;;13.12;94.16;96061.00;4312965;32;20257;-65
2022/10/17 02:43:20;;;;;;;4.23;1.10;;;;;;;13.15;93.59;96071.91;4314731;32;20194;-65
2022/10/17 02:45:48;;;;;;;0.47;0.47;;;;;;;13.22;93.73;96064.34;4333403;32;20216;-65
2022/10/17 02:48:32;;;;;;;0.30;0.30;;;;;;;13.28;93.33;96073.06;4321617;33;20185;-67
2022/10/17 02:51:17;;;;;;;0.43;0.43;;;;;;;13.36;92.99;96065.19;4318194;32;20205;-65
2022/10/17 02:53:57;;;;;;;1.60;0.90;;;;;;;13.29;93.24;96064.00;4315927;33;20190;-65
2022/10/17 02:56:24;;;;;;;0.60;0.60;;;;;;;13.39;92.71;96058.47;4333911;32;20250;-65
2022/10/17 02:58:56;;;;;;;0.63;0.63;;;;;;;13.42;92.13;96060.56;4313886;32;20186;-65
2022/10/17 03:01:25;;;;;;;1.60;0.70;;;;;;;13.42;91.96;96063.22;4333324;32;20264;-65
2022/10/17 03:03:50;;;;;;;0.83;0.83;;;;;;;13.28;91.66;96063.19;4315831;32;20186;-65
2022/10/17 03:06:16;;;;;;;0.50;0.50;;;;;;;13.31;91.83;96056.47;4331582;32;20177;-65
2022/10/17 03:08:42;;;;;;;0.87;0.87;;;;;;;13.38;91.61;96063.00;4331639;32;20190;-65
2022/10/17 03:11:09;;;;;;;0.57;0.57;;;;;;;13.40;91.25;96060.06;4328953;32;20277;-65
2022/10/17 03:13:37;;;;;;;1.57;0.60;;;;;;;13.45;90.66;96067.97;4296429;32;20186;-65
2022/10/17 03:16:05;;;;;;;0.60;0.60;;;;;;;13.36;91.13;96065.19;4329205;32;20208;-65
2022/10/17 03:18:30;;;;;;;0.30;0.30;;;;;;;13.32;91.46;96069.50;4302356;33;20190;-65
2022/10/17 03:20:56;;;;;;;0.50;0.50;;;;;;;13.26;91.62;96068.03;4336190;32;20207;-65
2022/10/17 03:23:23;;;;;;;0.90;0.60;;;;;;;13.33;91.65;96070.28;4305567;33;20190;-65
2022/10/17 03:25:50;;;;;;;0.53;0.53;;;;;;;13.34;91.67;96074.53;4331016;32;20181;-65
2022/10/17 03:28:16;;;;;;;0.30;0.30;;;;;;;13.16;92.47;96076.16;4330799;33;20196;-65
2022/10/17 03:30:43;;;;;;;0.67;0.67;;;;;;;13.22;92.56;96068.87;4316164;32;20282;-65
2022/10/17 03:33:10;;;;;;;0.47;0.47;;;;;;;13.37;91.63;96066.75;4325500;32;20357;-65
2022/10/17 03:35:39;;;;;;;0.73;0.73;;;;;;;13.40;91.33;96076.84;4302778;33;20194;-65
2022/10/17 03:38:04;;;;;;;0.40;0.40;;;;;;;13.35;91.45;96068.94;4327734;32;20215;-65
2022/10/17 03:40:32;;;;;;;0.97;0.97;;;;;;;13.38;91.30;96078.22;4295250;33;20257;-65
2022/10/17 03:42:59;;;;;;;0.83;0.83;;;;;;;13.31;91.36;96080.44;4310282;33;20205;-65
2022/10/17 03:45:25;;;;;;;0.63;0.63;;;;;;;13.22;92.05;96075.00;4291537;32;20202;-65
2022/10/17 03:47:51;;;;;;;0.67;0.50;;;;;;;13.28;90.85;96081.06;4322317;32;20177;-65
2022/10/17 03:50:16;;;;;;;0.60;0.60;;;;;;;13.32;90.87;96084.69;4306713;33;20200;-65
2022/10/17 03:52:48;;;;;;;0.57;0.57;;;;;;;13.36;90.61;96088.38;4305343;32;20300;-65
2022/10/17 03:55:16;;;;;;;0.67;0.67;;;;;;;13.26;90.97;96086.69;4333784;32;20220;-65
2022/10/17 03:57:41;;;;;;;0.63;0.63;;;;;;;13.10;91.92;96090.59;4329923;32;20223;-65
2022/10/17 04:00:09;;;;;;;0.60;0.60;;;;;;;12.96;92.53;96081.78;4328541;32;20290;-65
2022/10/17 04:02:35;;;;;;;12.83;0.67;;;;;;;12.98;92.33;96079.62;4320257;32;20200;-63
2022/10/17 04:05:01;;;;;;;0.67;0.67;;;;;;;13.14;91.75;96082.84;4286935;33;20178;-63
2022/10/17 04:07:28;;;;;;;0.40;0.40;;;;;;;13.19;91.32;96090.78;4306303;32;20182;-65
2022/10/17 04:09:54;;;;;;;0.30;0.30;;;;;;;13.16;91.09;96089.50;4314385;33;20217;-65
2022/10/17 04:12:22;;;;;;;0.37;0.37;;;;;;;13.09;91.25;96092.47;4320253;32;20182;-65
2022/10/17 04:14:50;;;;;;;0.50;0.50;;;;;;;13.09;91.42;96089.06;4301078;33;20252;-65
2022/10/17 04:17:15;;;;;;;0.80;0.80;;;;;;;12.95;92.85;96091.63;4322633;32;20178;-65
2022/10/17 04:19:41;;;;;;;0.77;0.77;;;;;;;12.89;92.28;96087.44;4308380;32;20218;-65
2022/10/17 04:22:07;;;;;;;2.00;1.43;;;;;;;12.91;92.21;96101.28;4321338;32;20240;-65
2022/10/17 04:24:32;;;;;;;0.47;0.47;;;;;;;12.97;91.84;96108.13;4323825;33;20246;-65
2022/10/17 04:26:58;;;;;;;0.40;0.40;;;;;;;13.11;91.21;96100.19;4314140;33;20220;-65
2022/10/17 04:29:25;;;;;;;0.47;0.47;;;;;;;13.00;91.46;96096.91;4314548;33;20240;-65
2022/10/17 04:31:52;;;;;;;0.60;0.50;;;;;;;12.91;91.98;96103.16;4311567;33;20304;-65
2022/10/17 04:34:17;;;;;;;0.37;0.37;;;;;;;13.03;91.10;96093.66;4277958;33;20285;-62
2022/10/17 04:36:43;;;;;;;0.80;0.80;;;;;;;12.94;90.95;96090.06;4303676;33;20190;-62
2022/10/17 04:39:09;;;;;;;0.10;0.10;;;;;;;12.82;90.64;96096.91;4267290;33;20266;-62
2022/10/17 04:41:37;;;;;;;0.50;0.50;;;;;;;12.95;90.56;96099.63;4292235;33;20229;-62
2022/10/17 04:44:03;;;;;;;0.87;0.87;;;;;;;13.06;89.91;96098.41;4292234;33;20201;-62
2022/10/17 04:46:32;;;;;;;0.63;0.50;;;;;;;13.11;89.57;96104.72;4284760;33;20249;-62
2022/10/17 04:48:57;;;;;;;0.93;0.93;;;;;;;13.10;89.26;96103.94;4299422;33;20217;-63
2022/10/17 04:51:24;;;;;;;0.47;0.47;;;;;;;13.17;89.12;96108.94;4312818;33;20421;-63
2022/10/17 04:53:52;;;;;;;1.03;0.40;;;;;;;13.03;90.08;96109.62;4291070;33;20192;-62
2022/10/17 04:56:20;;;;;;;0.50;0.50;;;;;;;13.03;90.06;96109.62;4314263;33;20178;-63
2022/10/17 04:58:58;;;;;;;0.83;0.83;;;;;;;12.95;89.83;96123.59;4314907;33;20183;-62
2022/10/17 05:01:24;;;;;;;0.53;0.53;;;;;;;12.98;89.66;96116.91;4312283;33;20223;-62
2022/10/17 05:03:51;;;;;;;1.50;0.57;;;;;;;12.90;90.13;96121.00;4281723;33;20182;-62
2022/10/17 05:06:21;;;;;;;0.83;0.83;;;;;;;12.99;90.20;96113.97;4299545;33;20182;-62
2022/10/17 05:08:48;;;;;;;1.60;0.63;;;;;;;13.01;90.19;96117.12;4300684;33;20186;-62
2022/10/17 05:11:24;;;;;;;3.30;1.27;;;;;;;12.96;90.37;96124.38;4301007;33;20186;-63
2022/10/17 05:13:56;;;;;;;0.60;0.60;;;;;;;12.92;90.45;96126.84;4307147;33;20217;-62
2022/10/17 05:16:22;;;;;;;0.83;0.67;;;;;;;12.91;90.36;96133.22;4314554;33;20192;-62
2022/10/17 05:18:50;;;;;;;0.80;0.80;;;;;;;12.92;90.67;96129.50;4310787;33;20177;-62
2022/10/17 05:21:17;;;;;;;1.10;1.00;;;;;;;12.99;90.70;96129.94;4284521;33;20186;-61
2022/10/17 05:23:42;;;;;;;1.00;1.00;;;;;;;13.00;89.87;96128.84;4308235;33;20199;-62
2022/10/17 05:26:08;;;;;;;1.03;0.93;;;;;;;13.03;89.85;96133.62;4278732;33;20292;-63
2022/10/17 05:28:33;;;;;;;0.67;0.67;;;;;;;13.04;89.74;96137.88;4296054;33;20225;-63
2022/10/17 05:31:05;;;;;;;1.40;1.30;;;;;;;13.05;89.39;96130.66;4308287;33;20193;-63
2022/10/17 05:33:31;;;;;;;0.40;0.40;;;;;;;13.00;89.73;96136.84;4294610;33;20194;-63
2022/10/17 05:35:57;;;;;;;0.50;0.50;;;;;;;12.96;89.76;96141.16;4304702;33;20194;-63
2022/10/17 05:38:24;;;;;;;0.77;0.77;;;;;;;12.97;89.58;96147.28;4262279;33;20205;-63
2022/10/17 05:40:49;;;;;;;0.70;0.70;;;;;;;12.99;89.28;96150.44;4295541;33;20194;-63
2022/10/17 05:43:17;;;;;;;1.17;1.17;;;;;;;12.79;89.80;96150.72;4307319;33;20181;-63
2022/10/17 05:45:43;;;;;;;0.67;0.67;;;;;;;12.90;90.18;96146.84;4301126;33;20190;-63
2022/10/17 05:48:09;;;;;;;0.60;0.60;;;;;;;12.86;89.62;96159.97;4312538;33;20193;-63
2022/10/17 05:50:34;;;;;;;1.10;1.00;;;;;;;12.85;89.66;96160.25;4286820;33;20249;-63
2022/10/17 05:53:01;;;;;;;1.10;1.10;;;;;;;12.96;89.25;96157.13;4288901;33;20208;-63
2022/10/17 05:55:29;;;;;;;0.43;0.43;;;;;;;13.01;88.81;96159.75;4299959;33;20204;-65
2022/10/17 05:57:54;;;;;;;0.53;0.53;;;;;;;12.95;89.17;96160.09;4246363;33;20226;-65
2022/10/17 06:00:24;;;;;;;0.40;0.40;;;;;;;12.97;88.70;96169.38;4307915;33;20252;-65
2022/10/17 06:02:49;;;;;;;1.37;1.27;;;;;;;12.98;88.92;96172.84;4276378;33;20202;-65
2022/10/17 06:05:21;;;;;;;0.93;0.93;;;;;;;12.98;89.19;96184.28;4258730;33;20202;-65
2022/10/17 06:07:48;;;;;;;0.83;0.83;;;;;;;12.97;89.77;96184.56;4300204;33;20182;-65
2022/10/17 06:10:16;;;;;;;0.67;0.67;;;;;;;12.99;89.59;96180.53;4296840;33;20174;-65
2022/10/17 06:12:43;;;;;;;1.00;1.00;;;;;;;12.92;89.57;96185.41;4294192;33;20315;-65
2022/10/17 06:15:12;;;;;;;0.87;0.87;;;;;;;12.96;89.22;96191.78;4309229;33;20249;-65
2022/10/17 06:17:37;;;;;;;1.03;1.03;;;;;;;12.96;89.62;96190.97;4286539;33;20193;-65
2022/10/17 06:20:04;;;;;;;0.60;0.60;;;;;;;12.87;89.23;96193.50;4287046;33;20274;-65
2022/10/17 06:22:30;;;;;;;1.23;1.13;;;;;;;12.92;89.86;96188.09;4313363;33;20178;-65
2022/10/17 06:24:56;;;;;;;1.57;1.03;;;;;;;13.01;89.51;96191.72;4307116;33;20178;-65
2022/10/17 06:27:22;;;;;;;0.70;0.70;;;;;;;13.07;89.06;96192.44;4304495;33;20282;-65
2022/10/17 06:29:47;;;;;;;0.50;0.50;;;;;;;13.03;89.18;96200.22;4307669;33;20206;-65
2022/10/17 06:32:13;;;;;;;1.20;1.03;;;;;;;13.04;89.45;96195.69;4293216;33;20181;-66
2022/10/17 06:34:39;;;;;;;0.70;0.70;;;;;;;13.09;88.86;96198.28;4278428;33;20250;-65
2022/10/17 06:37:06;;;;;;;1.50;1.37;;;;;;;13.07;88.84;96195.91;4312071;33;20191;-66
2022/10/17 06:39:35;;;;;;;0.83;0.83;;;;;;;13.06;88.86;96193.53;4293665;33;20201;-66
2022/10/17 06:42:03;;;;;;;1.00;1.00;;;;;;;13.12;88.90;96196.88;4305331;33;20304;-65
2022/10/17 06:44:34;;;;;;;1.10;1.00;;;;;;;13.18;88.53;96196.56;4305600;33;20178;-65
2022/10/17 06:47:00;;;;;;;2.73;1.13;;;;;;;13.19;88.72;96192.03;4269612;33;20275;-65
2022/10/17 06:49:27;;;;;;;0.77;0.77;;;;;;;13.14;89.09;96203.50;4284144;33;20206;-65
2022/10/17 06:52:00;;;;;;;0.60;0.60;;;;;;;13.18;88.85;96209.88;4300984;33;20189;-65
2022/10/17 06:54:27;;;;;;;0.90;0.90;;;;;;;13.06;89.17;96204.97;4291377;33;20194;-66
2022/10/17 06:56:54;;;;;;;1.77;1.67;;;;;;;13.15;89.20;96212.28;4276835;33;20186;-54
2022/10/17 06:59:20;;;;;;;2.30;1.60;;;;;;;14.01;100.00;96213.69;4313152;32;20186;-52
2022/10/17 07:01:45;;;;;;;1.00;0.87;;;;;;;15.15;100.00;96210.22;4297424;33;20185;-49
2022/10/17 07:04:11;;;;;;;1.00;1.00;;;;;;;15.32;95.51;96210.38;4296012;33;20221;-50
2022/10/17 07:06:37;;;;;;;1.60;1.23;;;;;;;14.73;88.05;96214.03;4313699;33;20229;-49
2022/10/17 07:09:05;;;;;;;1.40;1.40;;;;;;;14.45;84.89;96215.88;4309409;33;20186;-47
2022/10/17 07:11:32;;;;;;;1.10;1.10;;;;;;;14.58;87.63;96217.75;4303636;33;20220;-47
2022/10/17 07:13:57;;;;;;;1.40;1.30;;;;;;;14.84;89.58;96220.75;4293895;33;20245;-48
2022/10/17 07:16:23;;;;;;;0.83;0.83;;;;;;;14.98;87.02;96218.03;4301140;33;20194;-49
2022/10/17 07:18:49;;;;;;;0.60;0.60;;;;;;;15.08;86.20;96226.66;4303303;33;20205;-54
2022/10/17 07:21:17;;;;;;;1.20;1.20;;;;;;;15.18;86.03;96220.28;4319539;33;20191;-49
2022/10/17 07:23:43;;;;;;;0.50;0.50;;;;;;;15.28;83.96;96224.62;4286052;33;20209;-49
2022/10/17 07:26:12;;;;;;;1.63;1.53;;;;;;;15.61;88.13;96223.38;4315935;32;20273;-50
2022/10/17 07:28:41;;;;;;;0.47;0.47;;;;;;;15.41;82.45;96239.84;4297907;33;20197;-46
2022/10/17 07:31:10;;;;;;;0.90;0.90;;;;;;;15.77;87.83;96235.34;4303837;33;20186;-48
2022/10/17 07:33:38;;;;;;;0.83;0.83;;;;;;;15.73;82.59;96238.91;4277834;33;20243;-49
2022/10/17 07:36:04;;;;;;;1.50;1.00;;;;;;;15.95;86.66;96246.16;4293402;33;20190;-61
2022/10/17 07:38:30;;;;;;;1.73;1.50;;;;;;;16.20;86.40;96247.44;4292336;33;20194;-60
2022/10/17 07:41:02;;;;;;;0.83;0.83;;;;;;;15.89;81.71;96244.69;4293367;33;20232;-60
2022/10/17 07:43:29;;;;;;;1.30;1.20;;;;;;;15.66;81.04;96257.25;4298786;33;20249;-60
2022/10/17 07:45:56;;;;;;;0.70;0.70;;;;;;;15.44;80.96;96257.97;4301152;33;20248;-61
2022/10/17 07:48:23;;;;;;;0.50;0.50;;;;;;;15.28;81.67;96265.53;4305535;33;20217;-60
2022/10/17 07:50:50;;;;;;;0.70;0.70;;;;;;;15.16;82.15;96265.25;4281187;33;20265;-61
2022/10/17 07:53:16;;;;;;;1.43;1.33;;;;;;;15.05;82.53;96258.53;4317037;33;20281;-60
2022/10/17 07:55:45;;;;;;;0.93;0.93;;;;;;;15.00;82.94;96270.09;4268873;33;20243;-60
2022/10/17 07:58:12;;;;;;;1.07;1.07;;;;;;;15.01;83.50;96266.34;4305063;32;20295;-60
2022/10/17 08:00:39;;;;;;;1.00;0.90;;;;;;;15.02;82.12;96265.25;4295872;33;20258;-60
2022/10/17 08:03:05;;;;;;;0.93;0.93;;;;;;;15.08;82.15;96264.06;4307945;33;20226;-60
2022/10/17 08:05:32;;;;;;;0.53;0.53;;;;;;;15.04;83.31;96263.09;4302815;33;20186;-59
2022/10/17 08:08:05;;;;;;;2.30;1.20;;;;;;;15.04;84.03;96270.31;4294600;33;20186;-59
2022/10/17 08:10:30;;;;;;;0.90;0.90;;;;;;;15.14;82.70;96270.12;4291918;33;20190;-59
2022/10/17 08:12:57;;;;;;;0.73;0.73;;;;;;;15.29;82.15;96266.31;4284597;33;20241;-59
2022/10/17 08:15:24;;;;;;;0.67;0.67;;;;;;;15.29;82.14;96266.31;4280872;33;20202;-59
2022/10/17 08:17:54;;;;;;;0.63;0.63;;;;;;;15.30;82.60;96265.25;4264809;33;20197;-60
2022/10/17 08:20:19;;;;;;;1.37;1.27;;;;;;;15.42;81.34;96262.81;4302322;33;20253;-59
2022/10/17 08:22:55;;;;;;;0.70;0.70;;;;;;;15.53;81.18;96268.75;4315993;33;20201;-59
2022/10/17 08:25:21;;;;;;;0.93;0.93;;;;;;;15.58;81.53;96266.81;4308132;32;20182;-60
2022/10/17 08:27:48;;;;;;;1.70;1.00;;;;;;;15.66;81.20;96265.28;4296835;33;20189;-60
2022/10/17 08:30:14;;;;;;;2.07;1.00;;;;;;;15.73;81.26;96260.31;4324992;32;20185;-59
2022/10/17 08:32:40;;;;;;;0.60;0.60;;;;;;;15.80;81.04;96264.13;4317680;32;20359;-59
2022/10/17 08:35:11;;;;;;;0.40;0.40;;;;;;;15.87;79.71;96270.97;4298303;33;20193;-59
2022/10/17 08:37:37;;;;;;;0.70;0.70;;;;;;;15.90;80.03;96267.69;4311750;32;20186;-59
2022/10/17 08:40:04;;;;;;;0.93;0.93;;;;;;;15.98;79.88;96264.28;4329077;32;20239;-59
2022/10/17 08:43:02;;;;;;;0.90;0.80;;;;;;;16.05;80.14;96270.00;4306667;33;20182;-60
2022/10/17 08:45:30;;;;;;;1.07;1.07;;;;;;;16.21;79.15;96263.16;4326114;32;20261;-59
2022/10/17 08:48:08;;;;;;;1.07;0.63;;;;;;;16.25;78.80;96264.13;4308547;33;20260;-59
2022/10/17 08:50:39;;;;;;;6.70;1.53;;;;;;;16.29;78.95;96259.75;4315074;32;20189;-60
2022/10/17 08:53:26;;;;;;;1.00;1.00;;;;;;;16.30;79.95;96266.69;4327627;32;20186;-60
2022/10/17 08:55:53;;;;;;;2.40;1.17;;;;;;;16.39;79.37;96270.22;4280935;32;20209;-59
2022/10/17 08:58:21;;;;;;;1.20;1.07;;;;;;;16.41;78.70;96269.94;4285220;33;20179;-60
2022/10/17 09:01:15;;;;;;;0.83;0.83;;;;;;;16.50;78.29;96266.19;4321655;32;20235;-61
2022/10/17 09:04:02;;;;;;;0.50;0.50;;;;;;;16.55;77.83;96270.62;4319504;33;20285;-59
2022/10/17 09:06:37;;;;;;;1.70;1.30;;;;;;;16.60;77.62;96275.84;4296071;33;20178;-59
2022/10/17 09:09:22;;;;;;;0.70;0.70;;;;;;;16.62;78.55;96268.31;4327727;32;20185;-60
2022/10/17 09:12:09;;;;;;;0.87;0.87;;;;;;;16.73;77.87;96268.84;4257451;33;20182;-59
2022/10/17 09:15:00;;;;;;;0.83;0.83;;;;;;;16.77;76.26;96264.44;4293415;33;20269;-59
2022/10/17 09:17:56;;;;;;;1.07;1.07;;;;;;;16.85;76.50;96266.34;4293660;32;20197;-59
2022/10/17 09:20:25;;;;;;;0.50;0.50;;;;;;;16.95;77.43;96268.78;4316376;32;20186;-59
2022/10/17 09:23:17;;;;;;;3.17;1.60;;;;;;;17.11;74.41;96263.78;4307207;33;20200;-58
2022/10/17 09:25:54;;;;;;;1.07;1.07;;;;;;;17.17;74.16;96270.59;4320866;32;20229;-59
2022/10/17 09:28:33;;;;;;;2.93;1.13;;;;;;;17.23;73.97;96272.03;4292739;33;20186;-61
2022/10/17 09:31:21;;;;;;;0.83;0.57;;;;;;;17.26;73.02;96271.38;4332009;32;20256;-61
2022/10/17 09:33:51;;;;;;;0.43;0.43;;;;;;;17.42;71.99;96274.44;4281455;33;20185;-61
2022/10/17 09:36:20;;;;;;;1.10;0.53;;;;;;;17.50;71.12;96270.94;4317643;32;20212;-62
2022/10/17 09:38:52;;;;;;;0.67;0.60;;;;;;;17.61;72.06;96274.13;4299321;33;20179;-60
2022/10/17 09:42:02;;;;;;;0.47;0.47;;;;;;;17.76;71.48;96274.50;4318746;33;20202;-60
2022/10/17 09:44:40;;;;;;;1.10;1.00;;;;;;;17.74;70.17;96278.59;4281332;33;20185;-61
2022/10/17 09:47:18;;;;;;;0.63;0.63;;;;;;;17.79;71.49;96283.81;4264123;33;20186;-61
2022/10/17 09:49:47;;;;;;;0.60;0.60;;;;;;;17.79;72.61;96284.59;4285507;33;20181;-63
2022/10/17 09:52:39;;;;;;;0.70;0.70;;;;;;;17.84;73.45;96284.44;4322961;33;20288;-61
2022/10/17 09:55:30;;;;;;;8.60;0.90;;;;;;;17.93;72.70;96278.28;4314104;32;20225;-61
2022/10/17 09:58:00;;;;;;;3.27;1.00;;;;;;;17.91;71.72;96275.13;4316552;33;20221;-60
2022/10/17 10:00:32;;;;;;;0.93;0.93;;;;;;;17.95;74.48;96278.75;4317711;33;20224;-61
2022/10/17 10:03:08;;;;;;;0.83;0.83;;;;;;;17.97;71.84;96281.91;4315390;33;20260;-61
2022/10/17 10:05:33;;;;;;;0.57;0.57;;;;;;;18.16;71.06;96277.78;4272092;33;20193;-60
2022/10/17 10:08:18;;;;;;;0.37;0.37;;;;;;;18.17;72.33;96283.94;4323114;33;20220;-59
2022/10/17 10:10:45;;;;;;;0.40;0.40;;;;;;;18.36;70.29;96287.09;4320119;33;20205;-60
2022/10/17 10:13:13;;;;;;;0.43;0.43;;;;;;;18.40;71.39;96287.25;4308396;33;20344;-60
2022/10/17 10:15:44;;;;;;;0.60;0.60;;;;;;;18.39;70.42;96289.13;4330889;33;20182;-60
2022/10/17 10:18:31;;;;;;;0.60;0.60;;;;;;;18.45;69.54;96284.41;4298818;33;20272;-58
2022/10/17 10:21:19;;;;;;;4.47;0.83;;;;;;;18.40;70.11;96298.78;4308895;33;20235;-60
2022/10/17 10:24:14;;;;;;;4.73;0.97;;;;;;;18.47;69.23;96303.69;4298462;33;20198;-60
2022/10/17 10:27:03;;;;;;;0.77;0.77;;;;;;;18.42;69.91;96293.88;4321156;33;20186;-61
2022/10/17 10:29:37;;;;;;;0.50;0.50;;;;;;;18.51;67.82;96297.31;4312726;33;20233;-60
2022/10/17 10:32:21;;;;;;;1.07;1.07;;;;;;;18.59;68.01;96294.94;4328088;32;20178;-61
2022/10/17 10:34:54;;;;;;;0.73;0.70;;;;;;;18.67;67.48;96286.91;4324062;32;20220;-61
2022/10/17 10:37:32;;;;;;;1.07;1.07;;;;;;;18.68;69.40;96285.78;4290913;33;20181;-61
2022/10/17 10:40:01;;;;;;;0.70;0.70;;;;;;;18.71;69.12;96287.03;4319344;32;20189;-61
2022/10/17 10:42:38;;;;;;;1.37;0.90;;;;;;;18.81;65.52;96286.69;4338221;32;20176;-61
2022/10/17 10:45:23;;;;;;;0.40;0.40;;;;;;;18.90;66.21;96290.16;4313663;32;20183;-61
2022/10/17 10:47:58;;;;;;;0.43;0.43;;;;;;;19.01;66.58;96285.19;4312229;32;20204;-64
2022/10/17 10:50:37;;;;;;;0.60;0.60;;;;;;;19.08;65.66;96285.47;4263718;33;20189;-62
2022/10/17 10:53:40;;;;;;;0.77;0.77;;;;;;;19.02;64.96;96282.19;4314310;32;20257;-62
2022/10/17 10:56:16;;;;;;;1.00;0.67;;;;;;;18.96;66.04;96283.47;4301521;32;20244;-62
2022/10/17 10:59:01;;;;;;;1.10;1.00;;;;;;;19.01;64.73;96277.91;4326415;32;20176;-62
2022/10/17 11:02:10;;;;;;;0.60;0.60;;;;;;;19.02;63.75;96282.19;4300639;33;20337;-62
2022/10/17 11:04:49;;;;;;;0.50;0.50;;;;;;;19.12;64.12;96273.72;4329937;32;20216;-62
2022/10/17 11:07:28;;;;;;;0.57;0.57;;;;;;;19.07;64.79;96282.00;4323379;32;20353;-62
2022/10/17 11:10:01;;;;;;;0.50;0.50;;;;;;;19.09;64.75;96277.09;4305910;33;20257;-62
2022/10/17 11:12:35;;;;;;;0.77;0.60;;;;;;;19.04;64.30;96273.78;4318879;32;20216;-62
2022/10/17 11:15:38;;;;;;;0.43;0.43;;;;;;;19.15;63.81;96275.78;4281820;33;20205;-62
2022/10/17 11:18:17;;;;;;;0.30;0.30;;;;;;;19.18;64.55;96275.13;4317472;32;20205;-62
2022/10/17 11:21:28;;;;;;;0.30;0.30;;;;;;;19.32;60.62;96274.13;4311682;32;20193;-62
2022/10/17 11:24:23;;;;;;;0.53;0.53;;;;;;;19.44;60.48;96266.13;4307202;33;20302;-62
2022/10/17 11:26:57;;;;;;;0.60;0.60;;;;;;;19.42;59.75;96268.34;4294877;32;20204;-62
2022/10/17 11:29:28;;;;;;;0.50;0.50;;;;;;;19.46;59.43;96269.28;4300356;33;20190;-63
2022/10/17 11:32:00;;;;;;;0.80;0.80;;;;;;;19.46;62.07;96264.69;4309906;33;20235;-63
2022/10/17 11:34:30;;;;;;;0.37;0.37;;;;;;;19.52;58.76;96268.00;4330759;32;20221;-63
2022/10/17 11:37:07;;;;;;;0.60;0.60;;;;;;;19.56;59.52;96274.28;4329148;32;20229;-62
2022/10/17 11:39:53;;;;;;;1.20;0.60;;;;;;;19.74;58.59;96275.00;4316989;32;20194;-62
2022/10/17 11:42:44;;;;;;;0.50;0.50;;;;;;;19.84;59.97;96269.19;4277033;33;20200;-62
2022/10/17 11:45:17;;;;;;;0.40;0.40;;;;;;;19.92;59.27;96264.88;4281581;33;20261;-63
2022/10/17 11:47:50;;;;;;;0.53;0.53;;;;;;;19.78;59.61;96273.97;4305362;33;20265;-62
2022/10/17 11:50:43;;;;;;;0.37;0.37;;;;;;;19.75;58.54;96274.63;4322610;32;20189;-62
2022/10/17 11:53:12;;;;;;;0.40;0.40;;;;;;;19.79;59.30;96272.88;4313085;32;20300;-61
2022/10/17 11:55:43;;;;;;;0.60;0.60;;;;;;;19.85;56.76;96270.78;4273952;32;20205;-52
2022/10/17 11:58:29;;;;;;;1.67;1.00;;;;;;;20.23;71.26;96270.59;4303789;32;20186;-50
2022/10/17 12:01:14;;;;;;;0.70;0.70;;;;;;;20.37;71.07;96268.41;4309002;32;20343;-64